Time;durP1;ratioP1;P1;durP2;ratioP2;P2;SDS_P1;SDS_P2;PMS_P1;PMS_P2;Temp;Humidity;BMP_temperature;BMP_pressure;BME280_temperature;BME280_humidity;BME280_pressure;Samples;Min_cycle;Max_cycle;Signal;HPM_P1;HPM_P2
2022/04/16 04:22:33;;;;;;;6.57;3.80;;;;;;;7.07;81.49;101385.34;5129506;27;20172;-75
2022/04/16 04:24:59;;;;;;;5.80;3.40;;;;;;;7.10;81.29;101387.72;5129861;28;20036;-75
2022/04/16 04:27:24;;;;;;;4.10;2.90;;;;;;;7.08;80.94;101385.22;5129725;28;20066;-75
2022/04/16 04:29:50;;;;;;;4.82;2.97;;;;;;;7.11;80.95;101384.13;5130098;28;20498;-75
2022/04/16 04:32:16;;;;;;;5.05;3.00;;;;;;;7.15;80.62;101393.50;5129382;28;20031;-75
2022/04/16 04:34:41;;;;;;;5.20;3.30;;;;;;;7.14;80.73;101391.81;5129851;28;20031;-75
2022/04/16 04:37:07;;;;;;;4.93;3.17;;;;;;;7.09;81.11;101401.94;5129636;28;20444;-75
2022/04/16 04:39:33;;;;;;;5.20;3.42;;;;;;;7.09;81.11;101396.66;5129583;28;20039;-74
2022/04/16 04:41:58;;;;;;;5.25;3.50;;;;;;;7.07;81.41;101398.59;5129212;28;20044;-76
2022/04/16 04:44:24;;;;;;;6.22;3.30;;;;;;;7.09;81.13;101399.28;5128314;28;20031;-75
2022/04/16 04:46:50;;;;;;;5.28;3.50;;;;;;;7.06;81.37;101407.50;5129630;28;20091;-75
2022/04/16 04:49:15;;;;;;;6.38;3.10;;;;;;;7.07;80.86;101403.88;5129475;28;20503;-75
2022/04/16 04:51:41;;;;;;;6.40;3.70;;;;;;;7.03;81.67;101395.31;5127873;28;20031;-74
2022/04/16 04:54:08;;;;;;;5.20;3.63;;;;;;;7.11;80.99;101404.47;5129427;28;20031;-74
2022/04/16 04:56:37;;;;;;;5.97;3.60;;;;;;;7.06;81.25;101399.56;5129334;28;20042;-74
2022/04/16 04:59:03;;;;;;;6.07;3.45;;;;;;;7.01;81.45;101399.06;5129861;28;20438;-74
2022/04/16 05:01:29;;;;;;;5.82;3.40;;;;;;;7.04;81.48;101401.47;5127804;28;20400;-73
2022/04/16 05:03:54;;;;;;;5.03;3.33;;;;;;;7.06;81.10;101411.00;5129365;27;20031;-72
2022/04/16 05:06:20;;;;;;;5.20;3.70;;;;;;;7.03;81.52;101411.22;5129359;28;20107;-73
2022/04/16 05:08:46;;;;;;;8.25;4.75;;;;;;;6.99;81.88;101411.59;5129127;28;20089;-73
2022/04/16 05:11:12;;;;;;;6.03;3.97;;;;;;;6.97;81.77;101406.41;5129091;27;20038;-73
2022/04/16 05:13:37;;;;;;;7.68;3.42;;;;;;;6.98;81.82;101409.94;5128669;28;20054;-73
2022/04/16 05:16:03;;;;;;;8.90;3.60;;;;;;;6.99;81.70;101412.44;5127605;28;20112;-73
2022/04/16 05:18:29;;;;;;;5.40;3.72;;;;;;;6.99;81.59;101401.84;5128893;28;20042;-73
2022/04/16 05:20:55;;;;;;;7.55;4.00;;;;;;;7.00;81.77;101405.34;5128673;28;20039;-73
2022/04/16 05:23:20;;;;;;;7.20;4.00;;;;;;;6.95;82.54;101411.00;5127264;28;20046;-73
2022/04/16 05:25:46;;;;;;;5.68;3.70;;;;;;;6.96;82.35;101412.66;5128759;28;20491;-73
2022/04/16 05:28:12;;;;;;;6.95;4.07;;;;;;;6.92;81.75;101408.59;5128918;28;20471;-74
2022/04/16 05:30:54;;;;;;;6.97;3.83;;;;;;;6.99;82.05;101417.75;5128841;28;20094;-73
2022/04/16 05:36:06;;;;;;;6.30;3.40;;;;;;;7.03;82.04;101418.31;5115192;28;20127;-71
2022/04/16 05:38:32;;;;;;;9.45;4.63;;;;;;;7.07;81.75;101423.28;5113667;28;20032;-72
2022/04/16 05:40:58;;;;;;;8.00;4.15;;;;;;;7.10;81.70;101410.72;5114942;28;20154;-73
2022/04/16 05:43:24;;;;;;;6.57;3.83;;;;;;;7.18;81.26;101427.72;5114758;28;20027;-73
2022/04/16 05:45:50;;;;;;;6.95;3.83;;;;;;;7.23;81.66;101424.69;5114539;28;20484;-74
2022/04/16 05:48:15;;;;;;;7.22;3.47;;;;;;;7.33;80.85;101425.66;5114865;28;20411;-73
2022/04/16 05:50:41;;;;;;;5.55;3.53;;;;;;;7.40;80.46;101429.47;5114734;28;20035;-73
2022/04/16 05:53:11;;;;;;;6.70;3.97;;;;;;;7.49;80.20;101430.53;5112863;28;20032;-73
2022/04/16 05:55:40;;;;;;;5.10;3.45;;;;;;;7.56;79.89;101429.94;5114462;28;20036;-74
2022/04/16 05:58:07;;;;;;;7.75;3.95;;;;;;;7.64;80.04;101439.91;5114414;28;20556;-73
2022/04/16 06:00:33;;;;;;;6.57;3.78;;;;;;;7.73;81.32;101433.84;5113115;28;20044;-74
2022/04/16 06:02:59;;;;;;;5.10;3.63;;;;;;;7.80;80.27;101440.31;5112742;28;20488;-74
2022/04/16 06:05:27;;;;;;;5.32;3.33;;;;;;;7.96;80.38;101444.38;5114550;28;20062;-75
2022/04/16 06:07:53;;;;;;;6.47;3.65;;;;;;;8.04;79.04;101448.06;5114819;28;20031;-75
2022/04/16 06:10:18;;;;;;;5.60;3.70;;;;;;;8.12;78.66;101442.13;5114335;28;20107;-74
2022/04/16 06:12:44;;;;;;;5.85;4.03;;;;;;;8.17;78.59;101442.59;5114186;28;20062;-78
2022/04/16 06:15:10;;;;;;;6.07;3.90;;;;;;;8.29;77.55;101449.53;5102956;28;20111;-74
2022/04/16 06:17:35;;;;;;;5.63;3.33;;;;;;;8.36;77.98;101448.06;5114330;28;20089;-72
2022/04/16 06:20:04;;;;;;;5.03;3.05;;;;;;;8.45;77.21;101461.53;5113780;28;20035;-72
2022/04/16 06:22:30;;;;;;;4.95;3.10;;;;;;;8.52;76.92;101457.38;5113280;27;20035;-73
2022/04/16 06:24:56;;;;;;;6.32;3.25;;;;;;;8.61;76.63;101461.91;5113096;28;20089;-74
2022/04/16 06:27:22;;;;;;;5.72;3.90;;;;;;;8.61;77.26;101468.06;5113729;27;20505;-73
2022/04/16 06:29:48;;;;;;;7.50;3.60;;;;;;;8.68;77.28;101460.41;5112390;28;20059;-73
2022/04/16 06:32:14;;;;;;;6.07;3.30;;;;;;;8.81;76.55;101469.03;5113102;28;20059;-73
2022/04/16 06:34:40;;;;;;;6.95;3.40;;;;;;;8.78;76.95;101463.94;5112122;28;20047;-72
2022/04/16 06:37:05;;;;;;;7.50;3.35;;;;;;;8.93;76.70;101470.63;5112147;28;20067;-73
2022/04/16 06:39:31;;;;;;;6.65;3.80;;;;;;;9.02;76.21;101465.47;5113532;28;20039;-75
2022/04/16 06:41:57;;;;;;;7.38;3.78;;;;;;;9.13;75.90;101466.22;5113122;28;20414;-74
2022/04/16 06:44:22;;;;;;;13.30;4.10;;;;;;;9.22;75.43;101464.56;5111033;28;20081;-74
2022/04/16 06:46:50;;;;;;;5.20;3.53;;;;;;;9.33;75.38;101461.81;5113482;28;20444;-73
2022/04/16 06:49:16;;;;;;;5.85;3.67;;;;;;;9.43;75.05;101467.13;5113458;28;20035;-72
2022/04/16 06:51:42;;;;;;;6.65;3.70;;;;;;;9.50;73.74;101463.78;5112955;28;20115;-70
2022/04/16 06:54:08;;;;;;;8.98;4.28;;;;;;;9.57;73.97;101465.91;5113125;28;20579;-73
2022/04/16 06:56:34;;;;;;;6.82;3.63;;;;;;;9.67;73.63;101466.78;5112920;28;20126;-73
2022/04/16 06:59:00;;;;;;;11.82;4.80;;;;;;;9.71;72.24;101477.00;5113067;28;20115;-75
2022/04/16 07:01:26;;;;;;;8.15;4.35;;;;;;;9.74;71.78;101478.56;5113078;28;20504;-74
2022/04/16 07:03:52;;;;;;;8.63;4.25;;;;;;;9.73;72.45;101477.72;5077538;28;20043;-73
2022/04/16 07:06:18;;;;;;;7.78;4.30;;;;;;;9.80;72.85;101472.69;5094287;28;20040;-73
2022/04/16 07:08:43;;;;;;;11.70;4.70;;;;;;;9.87;73.73;101471.13;5112838;28;20044;-74
2022/04/16 07:11:09;;;;;;;10.82;4.30;;;;;;;9.94;72.19;101468.75;5111706;28;20028;-74
2022/04/16 07:13:35;;;;;;;8.88;4.45;;;;;;;9.97;71.89;101474.63;5112190;28;20031;-73
2022/04/16 07:16:00;;;;;;;7.47;4.18;;;;;;;10.01;72.71;101467.22;5111644;28;20031;-73
2022/04/16 07:18:26;;;;;;;22.60;10.38;;;;;;;10.10;72.15;101473.50;5094700;28;20084;-72
2022/04/16 07:20:52;;;;;;;11.40;5.57;;;;;;;10.16;71.89;101476.47;5112557;28;20032;-72
2022/04/16 07:23:17;;;;;;;9.18;5.60;;;;;;;10.16;71.75;101473.78;5112485;27;20465;-72
2022/04/16 07:25:43;;;;;;;9.77;5.15;;;;;;;10.32;71.16;101482.09;5112701;28;20039;-71
2022/04/16 07:28:11;;;;;;;12.65;6.32;;;;;;;10.39;71.28;101486.88;5112642;28;20035;-72
2022/04/16 07:30:37;;;;;;;12.50;5.63;;;;;;;10.38;71.04;101483.38;5112608;28;20046;-72
2022/04/16 07:33:02;;;;;;;10.23;5.28;;;;;;;10.43;70.42;101477.59;5112361;28;20050;-72
2022/04/16 07:35:28;;;;;;;9.23;5.57;;;;;;;10.56;70.97;101492.31;5112497;28;20039;-72
2022/04/16 07:37:58;;;;;;;11.43;5.78;;;;;;;10.61;70.26;101491.88;5112453;28;20098;-73
2022/04/16 07:40:26;;;;;;;7.97;4.75;;;;;;;10.72;70.17;101490.88;5112555;28;20442;-72
2022/04/16 07:42:52;;;;;;;10.00;6.03;;;;;;;10.75;70.91;101480.75;5112139;28;20369;-73
2022/04/16 07:45:18;;;;;;;8.98;5.10;;;;;;;10.84;69.98;101484.38;5112406;28;20046;-72
2022/04/16 07:47:43;;;;;;;9.75;6.65;;;;;;;10.92;70.92;101487.16;5112263;28;20451;-71
2022/04/16 07:50:09;;;;;;;12.23;6.05;;;;;;;10.94;69.79;101490.50;5112281;28;20035;-73
2022/04/16 07:52:35;;;;;;;10.48;5.57;;;;;;;11.01;70.24;101486.28;5111966;28;20396;-73
2022/04/16 07:55:01;;;;;;;8.32;5.07;;;;;;;11.14;69.82;101489.44;5111930;28;20039;-71
2022/04/16 07:57:26;;;;;;;9.90;5.35;;;;;;;11.30;69.50;101496.84;5112146;28;20082;-73
2022/04/16 07:59:54;;;;;;;8.38;4.75;;;;;;;11.31;69.60;101493.19;5112212;28;20043;-74
2022/04/16 08:02:22;;;;;;;10.55;5.50;;;;;;;11.32;69.49;101499.34;5110538;28;20106;-72
2022/04/16 08:04:48;;;;;;;8.48;5.05;;;;;;;11.44;68.86;101494.66;5112190;27;20063;-72
2022/04/16 08:07:14;;;;;;;14.00;5.85;;;;;;;11.39;68.73;101501.28;5112037;28;20082;-72
2022/04/16 08:09:39;;;;;;;15.65;5.82;;;;;;;11.31;69.11;101493.19;5112101;28;20031;-71
2022/04/16 08:12:05;;;;;;;11.27;5.10;;;;;;;11.45;69.56;101496.34;5110668;28;20055;-74
2022/04/16 08:14:31;;;;;;;9.73;5.18;;;;;;;11.50;68.98;101508.25;5112133;28;20472;-71
2022/04/16 08:16:57;;;;;;;11.10;5.90;;;;;;;11.71;70.81;101512.47;5112392;28;20078;-78
2022/04/16 08:19:23;;;;;;;11.55;6.55;;;;;;;11.73;71.02;101508.66;5114452;28;20049;-78
2022/04/16 08:21:49;;;;;;;12.60;6.25;;;;;;;11.71;70.44;101507.16;5113467;28;20479;-78
2022/04/16 08:24:32;;;;;;;11.20;6.50;;;;;;;11.77;69.28;101515.41;5114028;28;20090;-77
2022/04/16 08:26:58;;;;;;;10.65;5.78;;;;;;;11.91;68.31;101524.75;5112875;28;20114;-73
2022/04/16 08:29:24;;;;;;;10.85;6.72;;;;;;;11.83;67.70;101524.66;5111828;28;20474;-72
2022/04/16 08:31:49;;;;;;;11.00;6.05;;;;;;;11.84;67.91;101527.19;5110566;28;20030;-72
2022/04/16 08:34:15;;;;;;;13.05;6.60;;;;;;;11.83;68.32;101524.66;5110744;28;20042;-72
2022/04/16 08:36:41;;;;;;;10.07;6.25;;;;;;;11.95;69.12;101523.47;5110572;28;20032;-73
2022/04/16 08:39:07;;;;;;;11.38;6.53;;;;;;;12.06;67.60;101525.06;5110494;28;20039;-72
2022/04/16 08:41:32;;;;;;;10.63;6.00;;;;;;;12.22;66.67;101522.56;5111567;28;20031;-72
2022/04/16 08:43:59;;;;;;;8.70;5.30;;;;;;;12.28;66.04;101523.78;5111609;28;20066;-73
2022/04/16 08:46:27;;;;;;;11.65;6.13;;;;;;;12.35;65.25;101527.50;5112026;28;20039;-73
2022/04/16 08:48:54;;;;;;;9.30;5.53;;;;;;;12.33;64.26;101518.81;5111689;28;20031;-72
2022/04/16 08:51:20;;;;;;;11.67;5.90;;;;;;;12.69;63.09;101523.09;5111649;28;20046;-71
2022/04/16 08:53:46;;;;;;;9.15;5.60;;;;;;;12.64;62.32;101529.91;5111443;28;20036;-72
2022/04/16 08:56:11;;;;;;;10.10;5.40;;;;;;;12.59;62.15;101533.06;5111349;28;20054;-72
2022/04/16 08:58:38;;;;;;;8.60;5.50;;;;;;;12.72;61.83;101536.19;5110177;28;20096;-74
2022/04/16 09:01:04;;;;;;;13.95;6.57;;;;;;;12.79;61.93;101539.06;5111439;28;20115;-73
2022/04/16 09:03:35;;;;;;;9.05;6.32;;;;;;;12.85;60.94;101529.59;5112050;28;20123;-73
2022/04/16 09:06:05;;;;;;;12.27;6.55;;;;;;;13.08;60.32;101537.91;5111347;28;20031;-72
2022/04/16 09:08:32;;;;;;;9.25;5.80;;;;;;;13.30;59.26;101530.22;5113910;28;20510;-73
2022/04/16 09:11:10;;;;;;;8.85;5.80;;;;;;;13.44;59.82;101523.41;5115499;28;20027;-72
2022/04/16 09:13:51;;;;;;;11.52;6.18;;;;;;;13.80;58.47;101524.03;5113882;28;20078;-72
2022/04/16 09:16:17;;;;;;;10.48;6.63;;;;;;;13.95;57.04;101532.25;5113901;28;20043;-72
2022/04/16 09:18:55;;;;;;;9.73;5.70;;;;;;;13.96;56.73;101533.13;5115431;28;20051;-74
2022/04/16 09:21:27;;;;;;;11.82;6.47;;;;;;;14.25;56.79;101528.13;5096929;28;20131;-72
2022/04/16 09:24:02;;;;;;;10.93;6.28;;;;;;;14.60;54.39;101535.03;5115607;28;20039;-73
2022/04/16 09:26:32;;;;;;;9.80;6.25;;;;;;;14.34;54.86;101520.91;5115325;28;20390;-71
2022/04/16 09:29:14;;;;;;;10.63;6.18;;;;;;;14.33;53.79;101530.81;5115061;28;20063;-72
2022/04/16 09:31:43;;;;;;;11.80;6.47;;;;;;;14.36;53.22;101521.59;5114963;28;20054;-73
2022/04/16 09:34:24;;;;;;;12.20;6.72;;;;;;;14.44;53.06;101523.44;5113527;28;20047;-72
2022/04/16 09:36:50;;;;;;;11.93;6.88;;;;;;;14.35;52.06;101522.63;5114868;28;20032;-73
2022/04/16 09:39:19;;;;;;;14.40;6.93;;;;;;;14.76;52.34;101528.00;5114924;28;20038;-73
2022/04/16 09:41:52;;;;;;;15.80;5.95;;;;;;;14.81;51.47;101533.69;5113436;28;20040;-72
2022/04/16 09:44:28;;;;;;;13.15;6.50;;;;;;;14.74;50.94;101524.66;5114973;28;20035;-73
2022/04/16 09:46:55;;;;;;;12.85;6.25;;;;;;;14.60;51.70;101528.81;5115123;28;20102;-73
2022/04/16 09:49:21;;;;;;;10.38;6.90;;;;;;;14.52;51.96;101532.34;5114783;28;20035;-73
2022/04/16 09:51:48;;;;;;;14.05;6.65;;;;;;;14.69;51.41;101543.91;5113146;28;20499;-73
2022/04/16 09:54:15;;;;;;;12.98;6.38;;;;;;;14.75;50.94;101537.03;5114870;28;20483;-74
2022/04/16 09:56:44;;;;;;;11.38;6.85;;;;;;;14.78;51.82;101523.28;5114678;28;20055;-73
2022/04/16 09:59:12;;;;;;;12.57;7.07;;;;;;;15.02;51.72;101533.13;5114540;28;20373;-74
2022/04/16 10:01:38;;;;;;;;;;;;;;;15.06;50.91;101531.78;5113476;28;20518;-73
2022/04/16 10:04:06;;;;;;;12.35;6.22;;;;;;;15.15;50.80;101525.41;5113099;28;19911;-73
2022/04/16 10:06:32;;;;;;;13.32;6.60;;;;;;;15.18;49.78;101531.22;5114596;28;20039;-73
2022/04/16 10:09:00;;;;;;;11.60;6.30;;;;;;;14.62;51.26;101537.56;5114601;28;20077;-74
2022/04/16 10:11:42;;;;;;;9.20;5.72;;;;;;;14.86;50.79;101539.34;5114317;28;20047;-74
2022/04/16 10:14:30;;;;;;;9.45;5.43;;;;;;;14.96;49.80;101534.66;5114567;28;20027;-75
2022/04/16 10:17:14;;;;;;;10.70;5.85;;;;;;;15.17;48.65;101547.53;5114224;28;20110;-73
2022/04/16 10:19:45;;;;;;;11.68;6.28;;;;;;;15.66;47.75;101534.78;5114005;28;20027;-74
2022/04/16 10:22:22;;;;;;;7.90;5.07;;;;;;;15.57;47.63;101543.00;5113754;28;20511;-73
2022/04/16 10:24:48;;;;;;;12.98;6.65;;;;;;;15.51;47.66;101549.91;5114312;28;20045;-73
2022/04/16 10:27:26;;;;;;;10.63;5.88;;;;;;;15.25;47.84;101543.97;5114398;28;20031;-75
2022/04/16 10:29:54;;;;;;;9.18;5.13;;;;;;;14.89;48.58;101553.28;5114458;28;20073;-74
2022/04/16 10:32:20;;;;;;;9.93;6.25;;;;;;;14.69;48.69;101551.97;5113499;28;20035;-73
2022/04/16 10:34:46;;;;;;;9.05;5.32;;;;;;;14.56;49.81;101551.63;5113810;28;20494;-75
2022/04/16 10:37:24;;;;;;;9.70;5.68;;;;;;;14.43;49.49;101549.41;5113652;28;20065;-73
2022/04/16 10:39:54;;;;;;;11.80;6.47;;;;;;;14.52;49.46;101537.72;5113621;28;20032;-74
2022/04/16 10:42:31;;;;;;;10.00;5.72;;;;;;;14.98;47.82;101529.94;5113395;28;20084;-73
2022/04/16 10:45:08;;;;;;;8.38;5.00;;;;;;;15.35;46.72;101534.72;5113560;28;20032;-74
2022/04/16 10:47:38;;;;;;;8.15;5.05;;;;;;;15.43;47.04;101534.69;5113534;28;20055;-73
2022/04/16 10:50:12;;;;;;;9.25;4.38;;;;;;;15.63;48.22;101539.66;5112345;28;20040;-73
2022/04/16 10:52:37;;;;;;;8.48;4.38;;;;;;;15.94;44.21;101535.13;5111927;28;20067;-73
2022/04/16 10:55:07;;;;;;;7.00;3.45;;;;;;;16.34;41.74;101524.28;5113361;28;20032;-73
2022/04/16 10:57:33;;;;;;;6.72;4.00;;;;;;;16.00;42.15;101521.00;5113075;28;20024;-74
2022/04/16 11:00:12;;;;;;;9.50;3.80;;;;;;;15.84;43.96;101539.06;5113241;28;20054;-73
2022/04/16 11:02:38;;;;;;;10.20;5.38;;;;;;;15.76;44.14;101537.25;5112859;28;20092;-73
2022/04/16 11:05:06;;;;;;;7.63;4.22;;;;;;;15.16;45.85;101538.63;5111876;28;20039;-74
2022/04/16 11:07:35;;;;;;;7.68;4.50;;;;;;;15.58;44.52;101525.88;5111718;28;20571;-74
2022/04/16 11:10:03;;;;;;;5.47;3.70;;;;;;;15.89;43.73;101534.00;5111625;28;20077;-74
2022/04/16 11:12:29;;;;;;;6.38;4.10;;;;;;;15.77;43.49;101521.97;5112681;28;20032;-73
2022/04/16 11:14:55;;;;;;;7.30;3.70;;;;;;;15.94;43.85;101531.63;5111867;28;20047;-74
2022/04/16 11:17:21;;;;;;;6.57;3.10;;;;;;;15.84;42.39;101522.94;5112861;28;20389;-74
2022/04/16 11:20:07;;;;;;;7.80;4.00;;;;;;;16.58;41.65;101525.94;5113053;28;20059;-73
2022/04/16 11:22:33;;;;;;;6.75;4.07;;;;;;;16.51;41.24;101515.91;5111288;28;20032;-73
2022/04/16 11:24:59;;;;;;;7.50;4.18;;;;;;;16.83;41.08;101530.13;5112933;28;20086;-74
2022/04/16 11:36:09;;;;;;;10.15;4.90;;;;;;;16.13;42.30;101520.41;5112752;28;20054;-73
2022/04/16 11:38:40;;;;;;;9.25;3.58;;;;;;;15.82;42.15;101515.06;5112448;28;20114;-73
2022/04/16 11:41:08;;;;;;;9.18;4.40;;;;;;;16.16;41.89;101513.81;5112642;28;20396;-73
2022/04/16 11:43:38;;;;;;;5.15;3.58;;;;;;;16.88;40.66;101508.84;5112246;28;20391;-74
2022/04/16 11:46:11;;;;;;;6.18;3.45;;;;;;;17.53;39.05;101524.25;5094039;28;20039;-72
2022/04/16 11:48:42;;;;;;;5.70;3.17;;;;;;;18.13;36.62;101515.03;5112388;28;20038;-72
2022/04/16 11:51:08;;;;;;;7.93;3.47;;;;;;;18.66;34.94;101510.13;5112261;28;20415;-73
2022/04/16 11:53:43;;;;;;;6.00;3.63;;;;;;;18.62;35.50;101508.81;5110720;28;20043;-73
2022/04/16 11:56:09;;;;;;;6.22;3.63;;;;;;;18.13;35.95;101511.50;5112267;28;20040;-74
2022/04/16 11:58:35;;;;;;;6.00;4.00;;;;;;;18.55;35.63;101515.19;5112151;28;20047;-75
2022/04/16 12:01:02;;;;;;;6.28;3.83;;;;;;;18.87;35.14;101521.91;5112036;28;20040;-75
2022/04/16 12:03:40;;;;;;;8.45;3.72;;;;;;;19.52;34.75;101507.94;5111672;28;20067;-75
2022/04/16 12:06:10;;;;;;;5.53;3.40;;;;;;;20.16;33.65;101509.41;5110322;28;20036;-73
2022/04/16 12:08:36;;;;;;;5.25;3.60;;;;;;;20.10;32.87;101510.22;5111793;28;20104;-73
2022/04/16 12:11:03;;;;;;;5.50;3.55;;;;;;;20.77;32.41;101502.97;5110427;28;20028;-72
2022/04/16 12:13:37;;;;;;;5.70;3.78;;;;;;;21.03;31.57;101508.34;5110268;28;20044;-73
2022/04/16 12:16:11;;;;;;;8.00;4.28;;;;;;;21.84;30.22;101513.31;5111671;28;20485;-74
2022/04/16 12:18:38;;;;;;;7.97;3.70;;;;;;;20.58;31.40;101510.06;5111587;28;20400;-74
2022/04/16 12:21:12;;;;;;;6.97;3.03;;;;;;;21.39;30.47;101502.44;5116941;28;20105;-75
2022/04/16 12:23:38;;;;;;;6.28;3.42;;;;;;;21.56;29.94;101508.19;5120750;27;20050;-74
2022/04/16 12:26:06;;;;;;;4.38;3.05;;;;;;;21.49;29.42;101512.81;5121553;28;20380;-75
2022/04/16 12:28:36;;;;;;;6.97;3.55;;;;;;;21.20;31.29;101508.72;5121192;28;20030;-73
2022/04/16 12:31:02;;;;;;;5.22;3.40;;;;;;;21.22;29.81;101508.50;5118901;28;20043;-75
2022/04/16 12:33:28;;;;;;;4.45;3.00;;;;;;;21.20;30.02;101511.44;5122066;27;20083;-73
2022/04/16 12:35:57;;;;;;;5.57;3.08;;;;;;;21.11;29.13;101505.41;5121248;28;20261;-74
2022/04/16 12:38:24;;;;;;;5.07;3.38;;;;;;;21.29;29.57;101499.34;5119280;28;20438;-74
2022/04/16 12:40:52;;;;;;;5.22;3.00;;;;;;;21.49;28.73;101503.84;5122578;27;20496;-73
2022/04/16 12:43:18;;;;;;;4.88;3.08;;;;;;;21.35;28.30;101500.38;5124077;27;20085;-73
2022/04/16 12:45:43;;;;;;;4.82;3.00;;;;;;;22.00;28.65;101498.38;5124306;27;20437;-74
2022/04/16 12:48:09;;;;;;;3.90;2.58;;;;;;;22.30;28.34;101490.50;5126226;27;20031;-75
2022/04/16 12:50:35;;;;;;;5.88;3.25;;;;;;;22.92;27.43;101496.00;5125260;27;20492;-75
2022/04/16 12:53:04;;;;;;;6.45;3.40;;;;;;;23.10;27.48;101503.34;5124117;27;20027;-76
2022/04/16 12:55:30;;;;;;;6.50;3.60;;;;;;;21.61;28.73;101481.28;5122095;27;20042;-75
2022/04/16 12:57:56;;;;;;;6.07;3.92;;;;;;;21.27;28.79;101487.88;5125350;27;20035;-76
2022/04/16 13:00:22;;;;;;;6.18;3.58;;;;;;;22.31;27.25;101484.00;5126202;27;20438;-75
2022/04/16 13:02:48;;;;;;;5.35;3.63;;;;;;;22.08;29.08;101489.97;5121466;27;20022;-74
2022/04/16 13:05:16;;;;;;;7.57;4.38;;;;;;;22.45;27.97;101488.25;5125187;27;20019;-74
2022/04/16 13:07:44;;;;;;;;;;;;;;;22.94;28.25;101474.88;5123836;27;20392;-76
2022/04/16 13:10:10;;;;;;;6.68;3.88;;;;;;;20.97;28.30;101481.28;5123814;27;19915;-75
2022/04/16 13:12:37;;;;;;;6.47;4.05;;;;;;;21.19;29.70;101481.84;5125664;27;20027;-76
2022/04/16 13:15:07;;;;;;;8.57;4.10;;;;;;;21.20;29.67;101461.84;5128162;27;20396;-77
2022/04/16 13:17:33;;;;;;;7.28;4.00;;;;;;;21.81;28.49;101473.03;5123955;27;20122;-75
2022/04/16 13:20:01;;;;;;;8.18;4.45;;;;;;;22.05;28.26;101482.28;5124370;27;20115;-78
2022/04/16 13:22:27;;;;;;;8.60;4.47;;;;;;;22.26;27.80;101472.16;5114867;27;20118;-77
2022/04/16 13:24:56;;;;;;;9.02;4.32;;;;;;;22.22;28.61;101479.88;5131281;27;20072;-75
2022/04/16 13:27:22;;;;;;;6.38;4.13;;;;;;;22.23;27.62;101470.69;5119167;27;20047;-77
2022/04/16 13:29:48;;;;;;;8.20;4.65;;;;;;;22.15;28.55;101470.97;5115638;28;20039;-77
2022/04/16 13:32:14;;;;;;;9.38;4.80;;;;;;;21.52;28.00;101463.63;5113569;28;20039;-78
2022/04/16 13:34:43;;;;;;;8.80;4.10;;;;;;;21.83;28.16;101459.25;5114055;28;20118;-75
2022/04/16 13:37:09;;;;;;;6.78;4.35;;;;;;;21.85;27.13;101455.28;5114812;28;20039;-77
2022/04/16 13:42:21;;;;;;;8.40;4.78;;;;;;;21.74;26.35;101445.13;5113295;28;20273;-78
2022/04/16 13:44:47;;;;;;;;;;;;;;;21.73;27.75;101453.50;5116213;28;20020;-78
2022/04/16 13:47:13;;;;;;;8.35;4.43;;;;;;;21.03;28.14;101442.50;5114953;28;20314;-77
2022/04/16 13:49:38;;;;;;;6.65;4.40;;;;;;;20.62;28.84;101446.38;5114391;28;20032;-78
2022/04/16 13:52:04;;;;;;;5.88;4.20;;;;;;;19.94;30.08;101433.00;5115269;28;20035;-78
2022/04/16 13:54:30;;;;;;;8.02;4.47;;;;;;;19.72;31.31;101442.34;5098535;28;20036;-76
2022/04/16 13:56:56;;;;;;;7.75;4.60;;;;;;;19.40;30.46;101431.19;5096459;28;20061;-77
2022/04/16 13:59:21;;;;;;;12.10;5.15;;;;;;;19.21;32.01;101437.34;5095726;28;20104;-79
2022/04/16 14:01:50;;;;;;;8.07;5.00;;;;;;;18.74;31.27;101440.84;5112875;28;20076;-78
2022/04/16 14:04:17;;;;;;;9.35;4.20;;;;;;;18.58;31.78;101442.81;5114548;28;20065;-78
2022/04/16 14:06:43;;;;;;;9.15;5.13;;;;;;;18.43;32.37;101437.47;5114448;28;20035;-78
2022/04/16 14:09:09;;;;;;;7.05;4.40;;;;;;;18.01;32.57;101430.28;5114554;28;20032;-76
2022/04/16 14:11:37;;;;;;;8.65;4.35;;;;;;;17.14;35.59;101435.72;5112608;28;20131;-73
2022/04/16 14:14:03;;;;;;;8.82;4.63;;;;;;;17.04;34.48;101433.31;5112541;28;20476;-73
2022/04/16 14:16:28;;;;;;;7.80;4.80;;;;;;;17.28;32.27;101439.44;5113628;28;20048;-72
2022/04/16 14:18:54;;;;;;;7.57;4.90;;;;;;;17.04;34.25;101441.41;5112439;28;20172;-73
2022/04/16 14:21:20;;;;;;;9.15;4.88;;;;;;;17.04;34.06;101435.19;5113497;28;20501;-73
2022/04/16 14:23:45;;;;;;;7.60;4.60;;;;;;;16.41;35.99;101431.13;5113228;28;20031;-72
2022/04/16 14:26:11;;;;;;;8.15;4.25;;;;;;;16.70;35.18;101431.19;5113786;28;20058;-72
2022/04/16 14:28:37;;;;;;;10.13;4.88;;;;;;;16.54;36.05;101437.53;5113518;28;20051;-73
2022/04/16 14:31:05;;;;;;;13.02;4.63;;;;;;;16.45;35.48;101430.56;5113501;28;20122;-74
2022/04/16 14:33:38;;;;;;;;;;;;;;;16.62;36.42;101427.72;5112423;28;20103;-72
2022/04/16 14:36:07;;;;;;;8.65;4.57;;;;;;;16.28;34.95;101419.13;5113542;28;19980;-74
2022/04/16 14:38:39;;;;;;;7.95;3.88;;;;;;;16.45;35.06;101432.44;5112028;28;20070;-73
2022/04/16 14:41:13;;;;;;;6.28;4.00;;;;;;;16.22;35.17;101427.09;5113780;28;20031;-72
2022/04/16 14:43:53;;;;;;;11.10;4.25;;;;;;;16.12;34.57;101431.91;5111823;28;20184;-73
2022/04/16 14:46:19;;;;;;;8.98;4.05;;;;;;;15.93;35.05;101423.31;5113270;28;20044;-72
2022/04/16 14:48:47;;;;;;;10.27;4.15;;;;;;;15.60;36.40;101429.88;5111890;28;20527;-71
2022/04/16 14:51:12;;;;;;;7.88;4.22;;;;;;;15.57;35.19;101435.59;5113320;28;20546;-71
2022/04/16 14:53:38;;;;;;;6.68;3.97;;;;;;;15.72;35.18;101423.13;5112726;28;20055;-72
2022/04/16 14:56:04;;;;;;;9.25;4.30;;;;;;;15.89;35.28;101418.47;5112986;28;20035;-73
2022/04/16 14:58:30;;;;;;;11.77;3.97;;;;;;;15.88;34.81;101414.09;5111632;28;20138;-73
2022/04/16 15:00:56;;;;;;;9.18;4.88;;;;;;;15.66;35.05;101429.22;5113217;28;20076;-71
2022/04/16 15:03:22;;;;;;;11.63;4.80;;;;;;;15.60;34.76;101440.63;5112828;28;20051;-73
2022/04/16 15:05:48;;;;;;;5.57;3.80;;;;;;;15.56;34.62;101441.97;5110714;28;20039;-73
2022/04/16 15:08:17;;;;;;;5.07;3.88;;;;;;;15.39;33.92;101434.03;5078946;28;20043;-72
2022/04/16 15:10:42;;;;;;;9.05;4.45;;;;;;;15.58;33.40;101429.22;5094944;28;20111;-72
2022/04/16 15:13:08;;;;;;;6.43;4.07;;;;;;;15.60;33.40;101435.25;5112739;28;20122;-73
2022/04/16 15:15:33;;;;;;;7.78;3.95;;;;;;;15.53;32.77;101436.97;5111687;28;20480;-73
2022/04/16 15:17:59;;;;;;;7.43;4.53;;;;;;;15.25;32.52;101425.88;5094421;28;20043;-71
2022/04/16 15:20:26;;;;;;;6.32;4.20;;;;;;;15.27;32.65;101435.44;5111278;28;20125;-73
2022/04/16 15:22:53;;;;;;;6.07;3.90;;;;;;;15.40;31.68;101438.38;5112430;28;20110;-72
2022/04/16 15:25:20;;;;;;;7.53;3.55;;;;;;;15.37;32.18;101440.56;5111188;28;20077;-73
2022/04/16 15:27:47;;;;;;;6.25;3.78;;;;;;;15.31;32.00;101439.44;5112440;28;20047;-73
2022/04/16 15:30:13;;;;;;;7.50;4.10;;;;;;;15.40;31.33;101448.28;5111330;28;20032;-73
2022/04/16 15:32:38;;;;;;;7.13;4.38;;;;;;;15.44;31.02;101442.38;5112209;28;20377;-72
2022/04/16 15:35:04;;;;;;;9.05;4.95;;;;;;;15.42;31.23;101436.34;5110972;28;20122;-73
2022/04/16 15:37:30;;;;;;;6.18;4.07;;;;;;;15.53;30.85;101432.44;5112156;27;20115;-72
2022/04/16 15:39:56;;;;;;;10.80;4.68;;;;;;;15.41;31.81;101436.53;5111027;28;20039;-72
2022/04/16 15:42:25;;;;;;;6.95;4.15;;;;;;;15.30;32.24;101431.56;5111953;28;20047;-72
2022/04/16 15:44:54;;;;;;;11.68;5.05;;;;;;;15.36;31.89;101442.44;5110966;28;20050;-73
2022/04/16 15:47:20;;;;;;;8.35;4.75;;;;;;;15.13;31.95;101436.19;5112132;28;20100;-73
2022/04/16 15:49:45;;;;;;;8.23;4.90;;;;;;;15.01;31.75;101429.50;5112068;28;20031;-74
2022/04/16 15:52:11;;;;;;;8.10;4.80;;;;;;;15.22;31.95;101442.34;5110546;28;20043;-73
2022/04/16 15:54:37;;;;;;;9.98;4.57;;;;;;;15.07;34.18;101436.88;5112269;28;20035;-79
2022/04/16 15:57:04;;;;;;;8.73;4.65;;;;;;;15.14;33.24;101438.69;5112299;28;20027;-77
2022/04/16 15:59:29;;;;;;;9.88;4.47;;;;;;;15.12;31.31;101440.69;5110956;28;20130;-77
2022/04/16 16:01:55;;;;;;;14.15;4.80;;;;;;;15.23;31.17;101439.47;5112664;28;20062;-75
2022/04/16 16:07:05;;;;;;;8.20;4.53;;;;;;;15.15;33.58;101434.16;5112087;28;20484;-72